Time;durP1;ratioP1;P1;durP2;ratioP2;P2;SDS_P1;SDS_P2;PMS_P1;PMS_P2;Temp;Humidity;BMP_temperature;BMP_pressure;BME280_temperature;BME280_humidity;BME280_pressure;Samples;Min_cycle;Max_cycle;Signal;HPM_P1;HPM_P2
2023/05/15 00:00:05;;;;;;;16.35;4.88;;;;;;;11.83;100.00;99325.94;4867330;29;20568;-81
2023/05/15 00:02:49;;;;;;;9.48;3.75;;;;;;;11.60;100.00;99307.84;4869011;29;20515;-81
2023/05/15 00:05:34;;;;;;;9.85;3.50;;;;;;;11.52;100.00;99325.38;4871681;29;20059;-81
2023/05/15 00:08:18;;;;;;;13.02;4.05;;;;;;;11.80;100.00;99319.28;4873527;29;20057;-80
2023/05/15 00:11:02;;;;;;;12.13;3.83;;;;;;;11.84;100.00;99328.41;4871262;29;20105;-81
2023/05/15 00:13:46;;;;;;;15.00;3.65;;;;;;;11.71;100.00;99321.25;4874469;29;20060;-79
2023/05/15 00:16:30;;;;;;;16.10;3.40;;;;;;;11.70;100.00;99322.28;4867485;29;20043;-80
2023/05/15 00:19:14;;;;;;;7.60;3.15;;;;;;;11.73;100.00;99331.56;4869814;29;20568;-80
2023/05/15 00:21:58;;;;;;;19.00;3.35;;;;;;;11.70;100.00;99327.53;4868813;29;20096;-81
2023/05/15 00:24:42;;;;;;;8.60;3.10;;;;;;;11.48;100.00;99311.00;4866088;29;20456;-82
2023/05/15 00:27:27;;;;;;;12.60;3.67;;;;;;;11.41;100.00;99325.94;4872260;29;20056;-82
2023/05/15 00:30:12;;;;;;;16.85;4.60;;;;;;;11.56;100.00;99316.09;4865709;29;20067;-80
2023/05/15 00:32:56;;;;;;;16.63;3.58;;;;;;;11.29;100.00;99321.22;4874075;29;20077;-80
2023/05/15 00:35:40;;;;;;;15.30;3.33;;;;;;;11.33;100.00;99315.56;4869378;29;20064;-81
2023/05/15 00:38:24;;;;;;;8.35;2.90;;;;;;;11.38;100.00;99323.69;4867632;29;20092;-81
2023/05/15 00:41:10;;;;;;;11.68;3.22;;;;;;;11.54;100.00;99327.84;4868225;29;20060;-81
2023/05/15 00:43:54;;;;;;;12.45;3.10;;;;;;;11.26;100.00;99318.16;4867035;29;20511;-81
2023/05/15 00:46:39;;;;;;;7.55;2.88;;;;;;;11.36;100.00;99325.69;4868418;29;20444;-82
2023/05/15 00:49:26;;;;;;;9.63;2.90;;;;;;;11.25;100.00;99334.91;4871335;29;20039;-81
2023/05/15 00:52:10;;;;;;;9.60;3.70;;;;;;;11.02;100.00;99330.72;4869205;29;20383;-81
2023/05/15 00:54:55;;;;;;;9.20;2.97;;;;;;;11.29;100.00;99326.47;4867041;29;20037;-81
2023/05/15 00:57:41;;;;;;;11.23;3.05;;;;;;;10.96;100.00;99342.78;4865803;29;20064;-82
2023/05/15 01:00:26;;;;;;;7.65;2.65;;;;;;;11.03;100.00;99342.03;4867264;29;20052;-82
2023/05/15 01:03:11;;;;;;;15.88;3.35;;;;;;;10.97;100.00;99336.53;4862706;29;20102;-82
2023/05/15 01:05:55;;;;;;;8.85;2.90;;;;;;;11.02;100.00;99348.31;4866192;29;20089;-82
2023/05/15 01:08:45;;;;;;;13.38;3.17;;;;;;;10.96;100.00;99349.88;4871829;29;20055;-81
2023/05/15 01:11:34;;;;;;;7.07;3.17;;;;;;;10.84;100.00;99349.56;4869333;29;20048;-81
2023/05/15 01:14:19;;;;;;;8.50;3.08;;;;;;;10.80;100.00;99364.03;4870716;29;20100;-81
2023/05/15 01:17:03;;;;;;;13.63;3.53;;;;;;;10.94;100.00;99342.16;4867332;29;20128;-81
2023/05/15 01:19:49;;;;;;;8.57;3.05;;;;;;;11.09;100.00;99351.78;4869808;29;20105;-81
2023/05/15 01:22:50;;;;;;;13.15;2.95;;;;;;;11.03;100.00;99347.31;4868003;29;20052;-81
2023/05/15 01:25:58;;;;;;;7.68;2.53;;;;;;;10.70;100.00;99338.94;4865641;29;20045;-81
2023/05/15 01:28:48;;;;;;;7.97;2.85;;;;;;;10.75;100.00;99350.69;4864703;29;20096;-82
2023/05/15 01:31:35;;;;;;;16.33;2.90;;;;;;;10.62;100.00;99346.94;4870598;29;20128;-81
2023/05/15 01:34:24;;;;;;;10.10;2.88;;;;;;;10.64;100.00;99344.94;4866463;29;20048;-81
2023/05/15 01:37:11;;;;;;;11.50;3.75;;;;;;;10.73;100.00;99342.19;4866264;29;20094;-81
2023/05/15 01:40:00;;;;;;;11.77;2.80;;;;;;;10.68;100.00;99361.94;4874808;29;20552;-81
2023/05/15 01:42:52;;;;;;;7.78;3.17;;;;;;;10.65;100.00;99358.88;4871632;29;20079;-80
2023/05/15 01:45:41;;;;;;;6.97;2.28;;;;;;;10.56;100.00;99363.41;4868276;29;20124;-80
2023/05/15 01:48:27;;;;;;;15.57;3.13;;;;;;;10.58;100.00;99361.41;4869218;29;20116;-81
2023/05/15 01:51:13;;;;;;;9.75;2.95;;;;;;;10.38;100.00;99341.00;4866342;29;20556;-81
2023/05/15 01:53:58;;;;;;;5.32;2.67;;;;;;;10.19;100.00;99352.09;4866293;29;20096;-82
2023/05/15 01:56:44;;;;;;;7.80;2.55;;;;;;;10.37;100.00;99346.44;4864209;29;20082;-82
2023/05/15 01:59:29;;;;;;;8.93;2.50;;;;;;;10.35;100.00;99351.88;4864471;29;20090;-81
2023/05/15 02:02:14;;;;;;;5.25;2.20;;;;;;;10.08;100.00;99341.09;4871905;29;20397;-80
2023/05/15 02:05:00;;;;;;;6.07;2.08;;;;;;;10.13;100.00;99336.09;4865493;29;20109;-81
2023/05/15 02:07:45;;;;;;;5.13;2.20;;;;;;;9.81;100.00;99340.72;4867857;29;20402;-81
2023/05/15 02:10:31;;;;;;;5.68;2.03;;;;;;;9.74;100.00;99339.84;4865307;29;20066;-81
2023/05/15 02:13:16;;;;;;;9.07;2.17;;;;;;;9.76;100.00;99345.72;4867161;29;20070;-81
2023/05/15 02:16:00;;;;;;;9.57;2.00;;;;;;;9.94;100.00;99341.91;4870105;29;20104;-80
2023/05/15 02:18:44;;;;;;;8.50;2.17;;;;;;;10.11;100.00;99340.72;4868583;29;20419;-80
2023/05/15 02:21:28;;;;;;;6.30;2.13;;;;;;;9.96;100.00;99339.91;4867305;29;20052;-82
2023/05/15 02:24:12;;;;;;;8.38;2.42;;;;;;;9.88;100.00;99347.91;4865870;29;20433;-81
2023/05/15 02:27:03;;;;;;;5.60;2.20;;;;;;;9.92;100.00;99341.28;4868711;29;20169;-81
2023/05/15 02:30:07;;;;;;;5.90;2.35;;;;;;;9.80;100.00;99343.56;4867615;29;20417;-81
2023/05/15 02:33:18;;;;;;;6.70;2.30;;;;;;;9.50;100.00;99354.84;4869248;29;20100;-80
2023/05/15 02:36:08;;;;;;;6.45;1.88;;;;;;;9.70;100.00;99338.59;4867108;29;20117;-82
2023/05/15 02:38:54;;;;;;;10.48;3.22;;;;;;;9.46;100.00;99342.28;4871164;29;20052;-81
2023/05/15 02:41:39;;;;;;;7.38;2.33;;;;;;;9.90;100.00;99348.53;4868957;29;20096;-80
2023/05/15 02:44:24;;;;;;;10.68;2.47;;;;;;;9.76;100.00;99361.44;4872980;29;20048;-81
2023/05/15 02:47:10;;;;;;;11.55;2.60;;;;;;;9.47;100.00;99349.97;4870264;29;20057;-82
2023/05/15 02:49:55;;;;;;;6.60;2.20;;;;;;;9.41;100.00;99354.13;4869602;29;20068;-81
2023/05/15 02:52:39;;;;;;;6.20;2.25;;;;;;;9.56;100.00;99354.13;4869225;29;20044;-81
2023/05/15 02:55:23;;;;;;;9.50;2.90;;;;;;;9.44;100.00;99358.19;4869027;29;20040;-81
2023/05/15 02:58:07;;;;;;;9.63;2.40;;;;;;;9.66;100.00;99363.53;4873954;29;20532;-81
2023/05/15 03:00:51;;;;;;;7.00;2.72;;;;;;;9.30;100.00;99359.78;4874324;29;20081;-81
2023/05/15 03:03:35;;;;;;;9.07;2.50;;;;;;;9.51;100.00;99364.34;4875424;29;20147;-81
2023/05/15 03:06:19;;;;;;;6.88;3.10;;;;;;;9.48;100.00;99364.69;4872479;29;20395;-80
2023/05/15 03:09:03;;;;;;;8.63;2.60;;;;;;;9.51;100.00;99380.06;4870311;29;20101;-82
2023/05/15 03:11:48;;;;;;;9.80;2.63;;;;;;;9.77;100.00;99375.38;4873491;29;20124;-81
2023/05/15 03:14:32;;;;;;;7.93;2.63;;;;;;;9.55;100.00;99386.56;4873259;29;20076;-81
2023/05/15 03:17:15;;;;;;;9.32;2.33;;;;;;;9.40;100.00;99385.72;4873360;29;20124;-81
2023/05/15 03:20:00;;;;;;;10.32;2.67;;;;;;;9.17;100.00;99386.56;4871093;29;20044;-82
2023/05/15 03:22:43;;;;;;;8.77;2.42;;;;;;;9.19;100.00;99400.31;4872080;29;20129;-80
2023/05/15 03:25:28;;;;;;;9.82;2.85;;;;;;;9.10;100.00;99396.94;4867952;29;20502;-81
2023/05/15 03:28:11;;;;;;;12.65;2.60;;;;;;;9.10;100.00;99404.00;4872223;29;20065;-81
2023/05/15 03:30:56;;;;;;;11.52;2.70;;;;;;;8.89;100.00;99389.75;4871765;29;20044;-81
2023/05/15 03:33:40;;;;;;;9.18;2.67;;;;;;;8.98;100.00;99399.16;4874576;29;20044;-81
2023/05/15 03:36:24;;;;;;;8.10;2.25;;;;;;;8.71;100.00;99397.88;4871525;29;20117;-78
2023/05/15 03:39:07;;;;;;;7.50;2.25;;;;;;;8.64;100.00;99355.06;4875224;29;20908;-80
2023/05/15 03:41:51;;;;;;;9.50;3.03;;;;;;;8.80;100.00;99372.47;4871547;29;20133;-81
2023/05/15 03:44:36;;;;;;;11.60;2.70;;;;;;;8.69;100.00;99394.63;4873179;29;20048;-81
2023/05/15 03:47:19;;;;;;;8.90;2.67;;;;;;;8.74;100.00;99397.53;4871922;29;20134;-80
2023/05/15 03:50:04;;;;;;;14.70;3.25;;;;;;;8.81;100.00;99402.88;4874059;29;20040;-80
2023/05/15 03:52:48;;;;;;;11.38;2.85;;;;;;;8.64;100.00;99407.41;4871636;29;20101;-80
2023/05/15 03:55:32;;;;;;;14.82;2.70;;;;;;;8.25;100.00;99398.56;4873531;29;20511;-81
2023/05/15 03:58:16;;;;;;;14.65;2.85;;;;;;;8.35;100.00;99378.25;4869663;29;20109;-81
2023/05/15 04:01:00;;;;;;;7.05;3.03;;;;;;;8.54;100.00;99397.16;4871613;29;20436;-81
2023/05/15 04:03:44;;;;;;;6.70;2.67;;;;;;;8.55;100.00;99404.84;4870463;29;20048;-80
2023/05/15 04:06:28;;;;;;;8.90;3.25;;;;;;;8.61;100.00;99398.09;4872648;29;20400;-80
2023/05/15 04:09:12;;;;;;;8.82;2.65;;;;;;;8.40;100.00;99407.34;4874459;29;20399;-81
2023/05/15 04:11:55;;;;;;;8.88;2.60;;;;;;;8.30;100.00;99393.66;4866194;29;20109;-81
2023/05/15 04:14:39;;;;;;;14.48;3.58;;;;;;;8.18;100.00;99423.78;4866243;29;20081;-80
2023/05/15 04:17:23;;;;;;;9.65;3.35;;;;;;;8.33;100.00;99390.69;4868093;29;20061;-79
2023/05/15 04:20:08;;;;;;;12.48;2.92;;;;;;;8.31;100.00;99395.28;4863665;29;20105;-81
2023/05/15 04:22:53;;;;;;;10.43;3.00;;;;;;;8.37;100.00;99389.38;4864463;29;20044;-80
2023/05/15 04:25:37;;;;;;;5.53;2.58;;;;;;;8.56;100.00;99390.78;4868393;29;20105;-81
2023/05/15 04:28:21;;;;;;;10.02;2.55;;;;;;;8.34;100.00;99396.72;4869324;29;20047;-81
2023/05/15 04:31:05;;;;;;;10.77;3.47;;;;;;;8.44;100.00;99390.28;4870637;29;20089;-81
2023/05/15 04:33:49;;;;;;;13.98;3.20;;;;;;;8.41;100.00;99393.25;4871049;29;20049;-81
2023/05/15 04:36:33;;;;;;;8.82;3.10;;;;;;;8.62;100.00;99381.41;4867726;29;20052;-81
2023/05/15 04:39:18;;;;;;;11.65;3.00;;;;;;;8.45;100.00;99388.50;4869431;29;20052;-80
2023/05/15 04:42:02;;;;;;;10.10;3.00;;;;;;;8.40;100.00;99383.78;4866665;29;20127;-81
2023/05/15 04:44:46;;;;;;;12.00;3.08;;;;;;;8.50;100.00;99380.97;4866325;29;20052;-81
2023/05/15 04:47:30;;;;;;;9.88;2.83;;;;;;;8.50;100.00;99385.41;4871758;29;20049;-80
2023/05/15 04:50:14;;;;;;;14.15;3.05;;;;;;;8.67;100.00;99386.13;4868431;29;20049;-81
2023/05/15 04:52:58;;;;;;;12.23;3.75;;;;;;;8.41;100.00;99390.66;4867104;29;20051;-81
2023/05/15 04:55:42;;;;;;;8.50;2.90;;;;;;;8.68;100.00;99393.00;4869517;29;20132;-81
2023/05/15 04:58:26;;;;;;;17.25;3.65;;;;;;;8.72;100.00;99402.13;4869069;29;20379;-80
2023/05/15 05:01:10;;;;;;;13.68;3.30;;;;;;;8.99;100.00;99400.00;4868391;29;20037;-80
2023/05/15 05:03:54;;;;;;;15.90;2.83;;;;;;;8.93;100.00;99396.25;4863483;29;20407;-82
2023/05/15 05:06:38;;;;;;;12.85;3.45;;;;;;;8.65;100.00;99399.41;4873075;29;20048;-81
2023/05/15 05:09:22;;;;;;;17.15;3.25;;;;;;;8.84;100.00;99381.59;4874712;29;20052;-81
2023/05/15 05:12:06;;;;;;;9.13;2.88;;;;;;;8.82;100.00;99388.81;4873335;29;20093;-81
2023/05/15 05:14:51;;;;;;;16.95;3.20;;;;;;;8.79;100.00;99399.63;4867636;29;20135;-81
2023/05/15 05:17:35;;;;;;;8.15;2.67;;;;;;;9.08;100.00;99392.88;4865590;29;20085;-81
2023/05/15 05:20:19;;;;;;;13.43;3.38;;;;;;;9.16;100.00;99405.09;4868362;29;20516;-81
2023/05/15 05:23:03;;;;;;;12.70;2.85;;;;;;;9.00;100.00;99391.94;4871327;29;20523;-80
2023/05/15 05:25:50;;;;;;;13.73;3.53;;;;;;;9.01;100.00;99418.94;4869998;29;20056;-80
2023/05/15 05:28:34;;;;;;;11.15;2.78;;;;;;;9.13;100.00;99427.22;4874399;29;20456;-80
2023/05/15 05:31:20;;;;;;;12.75;3.25;;;;;;;9.23;100.00;99419.91;4867119;29;20064;-80
2023/05/15 05:34:05;;;;;;;12.38;3.13;;;;;;;9.06;100.00;99426.28;4877349;29;20097;-80
2023/05/15 05:36:50;;;;;;;12.32;2.85;;;;;;;9.36;100.00;99405.41;4866083;29;20048;-80
2023/05/15 05:39:34;;;;;;;11.40;2.75;;;;;;;9.26;100.00;99421.38;4871199;29;20164;-80
2023/05/15 05:42:18;;;;;;;13.05;3.05;;;;;;;9.15;100.00;99412.13;4868275;29;20477;-81
2023/05/15 05:45:03;;;;;;;10.38;2.60;;;;;;;9.18;100.00;99419.63;4867013;29;20048;-80
2023/05/15 05:47:46;;;;;;;10.50;2.58;;;;;;;9.37;100.00;99428.00;4872364;29;20052;-81
2023/05/15 05:50:30;;;;;;;12.30;3.58;;;;;;;9.66;100.00;99427.25;4868810;29;20084;-80
2023/05/15 05:53:15;;;;;;;9.85;2.80;;;;;;;9.34;100.00;99423.94;4872137;29;20084;-80
2023/05/15 05:55:59;;;;;;;10.25;3.25;;;;;;;9.27;100.00;99429.06;4875853;29;20081;-80
2023/05/15 05:58:43;;;;;;;18.25;3.97;;;;;;;9.54;100.00;99424.25;4868856;29;20055;-81
2023/05/15 06:01:28;;;;;;;14.07;3.03;;;;;;;9.52;100.00;99431.47;4871277;29;20134;-81
2023/05/15 06:04:12;;;;;;;13.75;3.13;;;;;;;9.54;100.00;99445.22;4869066;29;20055;-78
2023/05/15 06:06:56;;;;;;;9.43;2.65;;;;;;;9.73;100.00;99448.31;4871425;29;20076;-80
2023/05/15 06:09:40;;;;;;;8.25;2.80;;;;;;;9.82;100.00;99428.88;4868885;29;20057;-81
2023/05/15 06:12:24;;;;;;;7.57;2.47;;;;;;;9.67;100.00;99438.56;4869744;29;20048;-81
2023/05/15 06:15:08;;;;;;;12.65;2.75;;;;;;;10.26;100.00;99442.19;4866965;29;20128;-79
2023/05/15 06:17:53;;;;;;;8.85;2.70;;;;;;;9.97;100.00;99435.94;4869163;29;20457;-77
2023/05/15 06:20:37;;;;;;;14.93;3.55;;;;;;;10.05;100.00;99440.28;4874160;29;20089;-77
2023/05/15 06:23:21;;;;;;;10.15;2.67;;;;;;;9.84;100.00;99449.69;4873370;29;20056;-77
2023/05/15 06:26:05;;;;;;;10.82;3.10;;;;;;;10.20;100.00;99435.84;4869327;29;20049;-76
2023/05/15 06:28:49;;;;;;;9.85;2.65;;;;;;;10.25;100.00;99446.59;4876245;29;20535;-78
2023/05/15 06:31:33;;;;;;;11.60;2.45;;;;;;;9.97;100.00;99455.13;4873196;29;20051;-81
2023/05/15 06:34:17;;;;;;;12.13;2.40;;;;;;;10.28;100.00;99451.50;4867568;29;20508;-81
2023/05/15 06:37:01;;;;;;;9.55;2.80;;;;;;;10.35;100.00;99454.19;4870758;29;20100;-81
2023/05/15 06:39:45;;;;;;;13.27;2.15;;;;;;;10.24;100.00;99465.19;4872279;29;20052;-81
2023/05/15 06:42:29;;;;;;;11.40;2.92;;;;;;;10.32;100.00;99457.19;4872306;29;20472;-80
2023/05/15 06:45:14;;;;;;;13.52;2.67;;;;;;;10.73;100.00;99457.69;4873659;29;20479;-83
2023/05/15 06:48:01;;;;;;;7.20;2.13;;;;;;;10.57;100.00;99454.28;4870666;29;20056;-82
2023/05/15 06:50:45;;;;;;;11.15;2.50;;;;;;;10.65;100.00;99441.06;4871640;29;20056;-80
2023/05/15 06:53:29;;;;;;;8.20;2.38;;;;;;;10.83;99.96;99463.50;4868693;29;20556;-80
2023/05/15 06:56:13;;;;;;;9.82;2.42;;;;;;;10.61;99.96;99447.69;4869839;29;20105;-78
2023/05/15 06:58:57;;;;;;;11.00;2.42;;;;;;;11.05;99.92;99443.28;4869141;29;20051;-78
2023/05/15 07:01:42;;;;;;;6.50;2.13;;;;;;;11.02;98.14;99458.63;4874845;29;20051;-78
2023/05/15 07:04:26;;;;;;;11.45;3.15;;;;;;;10.80;99.92;99458.56;4870208;29;20395;-81
2023/05/15 07:07:10;;;;;;;8.73;2.83;;;;;;;11.32;98.83;99474.25;4869197;29;21600;-79
2023/05/15 07:09:54;;;;;;;12.90;2.47;;;;;;;11.48;96.99;99465.28;4869246;29;20040;-80
2023/05/15 07:12:38;;;;;;;8.88;3.13;;;;;;;10.91;97.52;99473.88;4867098;29;20052;-80
2023/05/15 07:15:22;;;;;;;7.18;2.78;;;;;;;10.94;97.00;99470.84;4866768;29;20084;-79
2023/05/15 07:18:06;;;;;;;4.90;2.10;;;;;;;10.77;97.02;99486.03;4867797;29;20411;-79
2023/05/15 07:20:50;;;;;;;11.57;2.15;;;;;;;10.91;98.45;99487.00;4869963;29;20052;-80
2023/05/15 07:23:33;;;;;;;10.02;2.40;;;;;;;10.65;100.00;99480.44;4869832;29;20051;-80
2023/05/15 07:26:17;;;;;;;7.07;2.20;;;;;;;11.08;99.94;99482.31;4873928;29;20052;-81
2023/05/15 07:29:02;;;;;;;12.55;2.50;;;;;;;11.14;98.97;99501.78;4866523;29;20100;-80
2023/05/15 07:31:46;;;;;;;7.05;2.30;;;;;;;11.49;98.50;99504.53;4861926;29;20053;-79
2023/05/15 07:34:30;;;;;;;5.68;2.30;;;;;;;11.38;98.29;99497.97;4867501;29;20089;-79
2023/05/15 07:37:14;;;;;;;7.97;2.28;;;;;;;11.31;98.00;99501.53;4868311;29;20044;-79
2023/05/15 07:39:58;;;;;;;9.85;2.22;;;;;;;11.13;98.60;99497.53;4866576;29;20052;-78
2023/05/15 07:42:43;;;;;;;10.32;2.53;;;;;;;11.55;97.30;99509.03;4860999;29;20056;-79
2023/05/15 07:45:27;;;;;;;9.85;3.10;;;;;;;11.44;95.99;99496.41;4867214;29;20100;-78
2023/05/15 07:48:14;;;;;;;;;;;;;;;11.40;96.34;99510.94;4861817;29;20419;-78
2023/05/15 07:50:59;;;;;;;5.88;2.20;;;;;;;11.56;96.44;99523.00;4867315;29;20011;-78
2023/05/15 07:53:43;;;;;;;5.38;2.33;;;;;;;11.94;95.04;99513.97;4874292;29;20068;-78
2023/05/15 07:56:27;;;;;;;5.90;1.95;;;;;;;11.88;94.05;99506.88;4869988;29;20044;-79
2023/05/15 07:59:11;;;;;;;5.93;1.95;;;;;;;11.55;94.37;99503.78;4866170;29;20096;-78
2023/05/15 08:01:55;;;;;;;11.68;2.45;;;;;;;11.41;93.86;99516.00;4864818;29;20085;-79
2023/05/15 08:04:39;;;;;;;4.63;1.77;;;;;;;11.53;92.30;99513.66;4869883;29;20051;-76
2023/05/15 08:07:24;;;;;;;8.27;2.17;;;;;;;11.53;93.23;99515.50;4870528;29;20048;-76
2023/05/15 08:10:09;;;;;;;5.57;2.08;;;;;;;11.71;92.91;99502.72;4867480;29;20136;-77
2023/05/15 08:12:53;;;;;;;5.00;2.05;;;;;;;11.79;93.74;99495.66;4866147;29;20527;-76
2023/05/15 08:15:36;;;;;;;4.40;2.15;;;;;;;11.73;92.30;99496.44;4873085;29;20511;-77
2023/05/15 08:18:20;;;;;;;8.68;2.42;;;;;;;12.30;92.51;99518.28;4865542;29;20519;-76
2023/05/15 08:21:05;;;;;;;5.10;1.92;;;;;;;11.97;90.88;99506.53;4862844;29;20056;-77
2023/05/15 08:23:49;;;;;;;11.10;2.38;;;;;;;12.09;90.04;99509.47;4870705;29;20098;-76
2023/05/15 08:26:33;;;;;;;8.38;1.95;;;;;;;12.00;90.03;99500.88;4871133;29;20101;-77
2023/05/15 08:29:17;;;;;;;5.35;1.88;;;;;;;11.52;90.67;99517.31;4864669;29;20095;-77
2023/05/15 08:32:02;;;;;;;6.85;1.80;;;;;;;12.12;89.61;99503.81;4865404;29;20060;-77
2023/05/15 08:34:46;;;;;;;3.70;1.63;;;;;;;12.26;88.32;99506.53;4869109;29;20087;-76
2023/05/15 08:37:32;;;;;;;5.05;2.00;;;;;;;12.39;88.18;99480.28;4868008;29;20096;-79
2023/05/15 08:40:16;;;;;;;6.47;1.92;;;;;;;12.34;87.24;99506.38;4868636;29;20102;-80
2023/05/15 08:43:09;;;;;;;8.68;2.20;;;;;;;12.19;85.18;99514.38;4865650;29;20109;-80
2023/05/15 08:45:54;;;;;;;7.75;1.75;;;;;;;12.39;83.34;99505.78;4866538;29;20105;-81
2023/05/15 08:48:40;;;;;;;5.13;1.88;;;;;;;12.50;83.42;99513.16;4871222;29;20415;-80
2023/05/15 08:51:25;;;;;;;4.38;1.90;;;;;;;12.75;84.75;99507.38;4868468;29;20188;-82
2023/05/15 08:54:10;;;;;;;3.97;1.67;;;;;;;13.16;83.63;99513.53;4867609;29;20625;-83
2023/05/15 08:56:54;;;;;;;5.38;1.88;;;;;;;12.92;83.28;99507.03;4866515;29;20202;-82
2023/05/15 08:59:39;;;;;;;6.20;1.63;;;;;;;12.81;83.61;99521.59;4868136;29;20048;-82
2023/05/15 09:02:26;;;;;;;5.72;2.13;;;;;;;12.86;83.69;99512.06;4865553;29;20092;-81
2023/05/15 09:05:10;;;;;;;4.20;1.73;;;;;;;12.96;82.07;99509.03;4870936;29;20952;-81
2023/05/15 09:07:57;;;;;;;8.82;3.30;;;;;;;13.14;80.70;99531.38;4868018;29;20073;-82
2023/05/15 09:10:42;;;;;;;5.50;1.70;;;;;;;12.84;80.47;99516.72;4865971;29;20093;-82
2023/05/15 09:13:26;;;;;;;6.72;1.83;;;;;;;12.75;81.45;99527.63;4868556;29;20068;-82
2023/05/15 09:16:10;;;;;;;7.03;1.83;;;;;;;12.90;81.96;99527.50;4866411;29;20109;-82
2023/05/15 09:18:57;;;;;;;4.18;1.80;;;;;;;13.24;81.01;99526.56;4868798;29;20120;-83
2023/05/15 09:21:41;;;;;;;4.40;1.80;;;;;;;13.27;82.72;99535.91;4867626;29;20460;-81
2023/05/15 09:24:27;;;;;;;7.55;2.13;;;;;;;13.37;79.41;99535.50;4870154;29;20047;-79
2023/05/15 09:27:11;;;;;;;4.75;2.05;;;;;;;13.26;79.35;99540.34;4868251;29;20056;-79
2023/05/15 09:30:06;;;;;;;6.60;1.80;;;;;;;13.37;80.76;99541.59;4869906;29;20052;-82
2023/05/15 09:32:51;;;;;;;5.22;1.70;;;;;;;13.13;79.93;99537.66;4860102;29;20097;-78
2023/05/15 09:35:37;;;;;;;4.25;1.77;;;;;;;13.42;76.94;99541.00;4864423;29;20420;-78
2023/05/15 09:38:21;;;;;;;4.38;1.95;;;;;;;12.99;77.29;99556.09;4866655;29;20052;-79
2023/05/15 09:41:06;;;;;;;4.85;1.90;;;;;;;13.10;76.49;99540.72;4866282;29;20084;-78
2023/05/15 09:43:51;;;;;;;8.18;2.30;;;;;;;13.50;77.54;99551.38;4864550;29;20204;-78
2023/05/15 09:46:35;;;;;;;5.03;1.88;;;;;;;13.66;77.95;99544.09;4873662;29;20072;-78
2023/05/15 09:49:19;;;;;;;3.88;1.83;;;;;;;14.18;76.51;99544.25;4865581;29;20053;-77
2023/05/15 09:52:07;;;;;;;3.65;1.80;;;;;;;14.23;76.37;99549.72;4864126;29;20074;-79
2023/05/15 09:54:51;;;;;;;6.93;1.73;;;;;;;14.29;76.35;99563.94;4871882;29;20531;-79
2023/05/15 09:57:36;;;;;;;6.38;1.95;;;;;;;14.67;73.96;99550.03;4868035;29;20202;-78
2023/05/15 10:00:22;;;;;;;3.17;1.92;;;;;;;14.29;73.56;99577.13;4874096;29;20052;-79
2023/05/15 10:03:07;;;;;;;2.97;1.73;;;;;;;14.73;73.60;99555.50;4871612;29;20120;-79
2023/05/15 10:05:59;;;;;;;4.18;1.70;;;;;;;15.30;72.43;99539.78;4869030;29;20412;-80
2023/05/15 10:08:51;;;;;;;3.92;1.65;;;;;;;14.28;73.08;99541.19;4867481;29;20102;-80
2023/05/15 10:11:37;;;;;;;3.53;1.67;;;;;;;15.12;70.82;99545.78;4867658;29;20056;-78
2023/05/15 10:14:22;;;;;;;5.57;1.50;;;;;;;15.50;70.40;99550.22;4869156;29;20502;-78
2023/05/15 10:17:08;;;;;;;3.67;1.48;;;;;;;15.60;69.58;99552.41;4870076;29;20404;-80
2023/05/15 10:19:52;;;;;;;2.80;1.60;;;;;;;15.44;68.35;99548.44;4872468;29;20051;-79
2023/05/15 10:22:41;;;;;;;7.82;1.63;;;;;;;14.96;68.25;99542.63;4871112;29;20560;-78
2023/05/15 10:25:41;;;;;;;2.20;1.70;;;;;;;15.33;68.28;99547.31;4869584;29;20572;-79
2023/05/15 10:28:27;;;;;;;3.70;1.80;;;;;;;15.55;68.45;99555.72;4867834;29;20124;-79
2023/05/15 10:31:12;;;;;;;3.17;1.77;;;;;;;15.78;68.97;99550.84;4866142;29;20048;-77
2023/05/15 10:33:57;;;;;;;2.67;1.90;;;;;;;15.63;67.61;99551.16;4869733;29;20085;-81
2023/05/15 10:36:42;;;;;;;5.05;2.08;;;;;;;15.89;68.06;99563.41;4869677;29;20107;-79
2023/05/15 10:39:27;;;;;;;3.63;1.95;;;;;;;16.10;67.61;99559.56;4869747;29;20059;-80
2023/05/15 10:42:12;;;;;;;2.63;1.60;;;;;;;15.39;67.79;99572.09;4870080;29;20093;-81
2023/05/15 10:44:58;;;;;;;5.32;2.30;;;;;;;15.39;67.29;99566.81;4865361;29;20056;-80
2023/05/15 10:47:44;;;;;;;3.75;1.83;;;;;;;15.82;67.46;99560.78;4868165;29;20172;-80
2023/05/15 10:50:29;;;;;;;3.05;1.90;;;;;;;16.05;65.98;99564.69;4870004;29;20452;-81
2023/05/15 10:53:13;;;;;;;4.13;2.10;;;;;;;15.97;65.49;99567.63;4870271;29;20510;-79
2023/05/15 10:55:57;;;;;;;4.28;1.80;;;;;;;16.67;64.76;99571.81;4876576;29;20171;-80
2023/05/15 10:58:47;;;;;;;3.53;1.70;;;;;;;15.59;66.10;99582.53;4866302;29;20128;-81
2023/05/15 11:01:34;;;;;;;5.60;1.63;;;;;;;15.23;66.61;99576.03;4871633;29;20064;-80
2023/05/15 11:04:22;;;;;;;4.72;1.88;;;;;;;15.10;67.45;99568.97;4871801;29;20052;-79
2023/05/15 11:07:17;;;;;;;4.13;1.70;;;;;;;16.03;66.06;99572.06;4863355;29;20563;-79
2023/05/15 11:10:26;;;;;;;3.63;1.50;;;;;;;16.23;65.65;99568.41;4861251;29;20515;-79
2023/05/15 11:13:10;;;;;;;3.22;1.42;;;;;;;15.48;63.71;99578.75;4870127;29;20392;-78
2023/05/15 11:15:56;;;;;;;2.08;1.50;;;;;;;15.78;63.61;99559.63;4868444;29;20113;-78
2023/05/15 11:18:44;;;;;;;4.40;2.42;;;;;;;15.54;65.03;99607.00;4871776;29;20520;-79
2023/05/15 11:21:31;;;;;;;3.40;1.95;;;;;;;15.30;63.40;99574.19;4881685;29;20105;-80
2023/05/15 11:24:15;;;;;;;3.10;1.77;;;;;;;15.35;64.61;99571.69;4872247;29;20044;-80
2023/05/15 11:27:03;;;;;;;3.60;1.42;;;;;;;16.10;64.68;99577.28;4866925;29;20040;-80
2023/05/15 11:30:09;;;;;;;3.38;1.80;;;;;;;16.45;64.34;99583.88;4871175;29;20068;-80
2023/05/15 11:32:59;;;;;;;5.80;1.80;;;;;;;16.50;63.51;99570.78;4865096;29;20392;-79
2023/05/15 11:35:46;;;;;;;2.53;1.73;;;;;;;16.63;62.51;99575.94;4866817;29;20165;-80
2023/05/15 11:38:37;;;;;;;4.03;1.63;;;;;;;15.79;62.75;99579.75;4867592;29;20044;-80
2023/05/15 11:41:23;;;;;;;3.80;1.55;;;;;;;15.79;62.63;99571.81;4869820;29;20104;-79
2023/05/15 11:44:08;;;;;;;5.13;1.70;;;;;;;16.52;64.60;99566.09;4869631;29;20101;-80
2023/05/15 11:46:52;;;;;;;3.53;1.80;;;;;;;16.15;61.39;99579.28;4866177;29;20097;-80
2023/05/15 11:49:37;;;;;;;2.72;1.55;;;;;;;16.66;61.50;99572.84;4868074;29;20135;-79
2023/05/15 11:52:23;;;;;;;4.80;2.00;;;;;;;16.97;61.21;99573.72;4864872;29;20044;-79
2023/05/15 11:55:07;;;;;;;2.65;1.80;;;;;;;16.85;60.24;99572.84;4868284;29;20433;-78
2023/05/15 11:57:51;;;;;;;4.32;1.70;;;;;;;16.89;60.53;99563.41;4866221;29;20077;-82
2023/05/15 12:00:35;;;;;;;5.07;1.80;;;;;;;16.99;61.48;99579.63;4873819;29;20096;-81
2023/05/15 12:03:26;;;;;;;3.25;1.50;;;;;;;17.36;61.58;99572.63;4872747;29;20073;-80
2023/05/15 12:06:11;;;;;;;3.08;1.80;;;;;;;16.99;61.05;99569.03;4868897;29;20589;-80
2023/05/15 12:08:55;;;;;;;2.40;1.50;;;;;;;17.20;57.46;99588.13;4870998;29;20096;-80
2023/05/15 12:11:39;;;;;;;2.70;1.67;;;;;;;16.07;57.47;99573.22;4872894;29;20123;-79
2023/05/15 12:14:28;;;;;;;3.50;1.75;;;;;;;16.85;58.04;99567.53;4866010;29;20501;-80
2023/05/15 12:17:12;;;;;;;4.38;2.15;;;;;;;16.65;57.34;99563.28;4871643;29;20670;-81
2023/05/15 12:19:57;;;;;;;2.70;1.70;;;;;;;17.12;57.60;99551.31;4872340;29;20180;-80
2023/05/15 12:22:41;;;;;;;4.35;1.85;;;;;;;16.12;56.20;99556.69;4867650;29;20337;-79
2023/05/15 12:25:26;;;;;;;4.15;1.67;;;;;;;16.52;55.91;99571.41;4867855;29;20109;-79
2023/05/15 12:28:11;;;;;;;3.47;1.92;;;;;;;17.19;55.96;99552.03;4866595;29;20052;-79
2023/05/15 12:30:56;;;;;;;3.60;2.03;;;;;;;17.89;57.60;99570.19;4869793;29;20044;-79
2023/05/15 12:33:40;;;;;;;4.65;2.22;;;;;;;17.99;56.62;99573.91;4862671;29;20101;-79
2023/05/15 12:36:28;;;;;;;2.55;1.80;;;;;;;18.11;57.25;99563.31;4871748;29;20048;-79
2023/05/15 12:39:12;;;;;;;3.20;1.70;;;;;;;17.41;57.28;99560.31;4861495;29;20053;-80
2023/05/15 12:41:57;;;;;;;3.17;1.75;;;;;;;17.54;58.18;99593.78;4870520;29;20085;-80
2023/05/15 12:44:42;;;;;;;2.60;2.00;;;;;;;16.99;58.48;99569.03;4868939;29;20486;-80
2023/05/15 12:47:27;;;;;;;2.35;2.00;;;;;;;16.88;59.01;99574.25;4868739;29;20440;-80
2023/05/15 12:50:21;;;;;;;3.00;1.70;;;;;;;17.05;57.34;99577.09;4871220;29;20048;-78
2023/05/15 12:53:05;;;;;;;5.95;2.00;;;;;;;17.47;58.04;99571.84;4867312;29;20144;-80